Time;durP1;ratioP1;P1;durP2;ratioP2;P2;SDS_P1;SDS_P2;PMS_P1;PMS_P2;Temp;Humidity;BMP_temperature;BMP_pressure;BME280_temperature;BME280_humidity;BME280_pressure;Samples;Min_cycle;Max_cycle;Signal;HPM_P1;HPM_P2
2021/08/13 00:00:53;;;;;;;17.90;10.63;;;;;;;;;;5026334;28;20022;-85
2021/08/13 00:03:20;;;;;;;13.05;8.75;;;;;;;;;;5016002;28;20102;-85
2021/08/13 00:05:45;;;;;;;15.18;8.98;;;;;;;;;;5024447;28;20045;-85
2021/08/13 00:08:10;;;;;;;15.10;9.05;;;;;;;;;;5027794;28;20444;-85
2021/08/13 00:10:36;;;;;;;14.85;9.00;;;;;;;;;;5023970;28;20029;-85
2021/08/13 00:13:01;;;;;;;15.30;9.20;;;;;;;;;;5032814;28;20013;-85
2021/08/13 00:15:26;;;;;;;18.50;8.70;;;;;;;;;;5031737;28;20370;-85
2021/08/13 00:17:53;;;;;;;16.58;9.20;;;;;;;;;;5033022;28;20468;-85
2021/08/13 00:20:20;;;;;;;18.75;8.88;;;;;;;;;;5032757;28;20449;-85
2021/08/13 00:22:45;;;;;;;13.30;9.15;;;;;;;;;;5033905;28;20398;-85
2021/08/13 00:25:10;;;;;;;13.73;8.90;;;;;;;;;;5032660;28;20059;-85
2021/08/13 00:27:36;;;;;;;15.23;8.43;;;;;;;;;;5032372;28;20113;-85
2021/08/13 00:30:02;;;;;;;19.48;9.27;;;;;;;;;;5020963;28;20120;-85
2021/08/13 00:32:27;;;;;;;18.80;9.68;;;;;;;;;;5027396;28;20449;-84
2021/08/13 00:34:52;;;;;;;14.18;8.82;;;;;;;;;;5032296;28;20026;-85
2021/08/13 00:37:17;;;;;;;14.95;8.30;;;;;;;;;;5012440;28;20025;-85
2021/08/13 00:39:43;;;;;;;15.45;9.52;;;;;;;;;;5012489;28;20466;-85
2021/08/13 00:42:08;;;;;;;17.38;9.93;;;;;;;;;;5012514;28;20099;-85
2021/08/13 00:44:33;;;;;;;16.23;9.63;;;;;;;;;;5012618;28;20025;-85
2021/08/13 00:46:59;;;;;;;19.08;9.63;;;;;;;;;;5012537;28;20097;-85
2021/08/13 00:49:24;;;;;;;25.30;12.88;;;;;;;;;;5012537;28;20014;-85
2021/08/13 00:51:49;;;;;;;24.38;13.20;;;;;;;;;;5012664;28;20139;-85
2021/08/13 00:54:14;;;;;;;21.17;12.07;;;;;;;;;;5012424;28;20014;-85
2021/08/13 00:56:40;;;;;;;22.20;11.73;;;;;;;;;;5012525;28;20342;-84
2021/08/13 00:59:09;;;;;;;27.95;15.20;;;;;;;;;;5012469;28;20385;-85
2021/08/13 01:01:34;;;;;;;26.15;13.77;;;;;;;;;;5012284;28;20504;-85
2021/08/13 01:03:59;;;;;;;23.42;14.20;;;;;;;;;;5012517;28;20014;-85
2021/08/13 01:06:25;;;;;;;29.27;14.45;;;;;;;;;;5012271;28;20018;-84
2021/08/13 01:08:50;;;;;;;24.23;12.93;;;;;;;;;;5012315;28;20029;-85
2021/08/13 01:11:34;;;;;;;22.88;13.25;;;;;;;;;;5012202;28;20028;-85
2021/08/13 01:14:03;;;;;;;22.80;13.38;;;;;;;;;;5045297;28;20038;-85
2021/08/13 01:16:29;;;;;;;26.58;13.38;;;;;;;;;;5013520;28;20156;-85
2021/08/13 01:18:56;;;;;;;25.52;13.57;;;;;;;;;;5012107;28;20492;-85
2021/08/13 01:21:21;;;;;;;21.00;12.45;;;;;;;;;;5012171;28;20026;-85
2021/08/13 01:23:55;;;;;;;21.83;12.93;;;;;;;;;;5045007;28;20670;-85
2021/08/13 01:26:20;;;;;;;26.00;14.45;;;;;;;;;;5012199;28;20036;-85
2021/08/13 01:28:55;;;;;;;27.40;13.05;;;;;;;;;;5011900;28;20521;-85
2021/08/13 01:31:24;;;;;;;24.77;13.82;;;;;;;;;;5045135;28;20037;-85
2021/08/13 01:34:01;;;;;;;29.48;14.23;;;;;;;;;;5013020;28;20470;-85
2021/08/13 01:36:27;;;;;;;34.25;13.60;;;;;;;;;;5000929;28;20030;-85
2021/08/13 01:38:53;;;;;;;30.30;13.18;;;;;;;;;;5011985;28;20022;-85
2021/08/13 01:41:19;;;;;;;25.67;14.63;;;;;;;;;;5012029;28;20041;-85
2021/08/13 01:43:44;;;;;;;29.20;13.73;;;;;;;;;;5011873;28;20488;-85
2021/08/13 01:46:11;;;;;;;29.02;14.20;;;;;;;;;;5011463;28;20022;-85
2021/08/13 01:48:36;;;;;;;29.42;14.68;;;;;;;;;;5013203;28;20013;-85
2021/08/13 01:51:02;;;;;;;34.25;13.95;;;;;;;;;;5015311;28;20025;-85
2021/08/13 01:53:28;;;;;;;27.48;14.57;;;;;;;;;;5015587;28;20026;-85
2021/08/13 01:55:54;;;;;;;28.75;14.75;;;;;;;;;;5015876;28;20025;-85
2021/08/13 01:58:21;;;;;;;27.77;14.65;;;;;;;;;;5015654;28;20021;-85
2021/08/13 02:00:46;;;;;;;29.70;15.13;;;;;;;;;;5015700;28;20390;-85
2021/08/13 02:03:12;;;;;;;32.00;15.38;;;;;;;;;;5015400;28;20022;-85
2021/08/13 02:05:38;;;;;;;29.35;14.65;;;;;;;;;;5015461;28;20022;-85
2021/08/13 02:08:05;;;;;;;27.88;15.68;;;;;;;;;;5015337;28;20044;-85
2021/08/13 02:10:32;;;;;;;25.80;14.05;;;;;;;;;;5015534;28;20036;-85
2021/08/13 02:12:57;;;;;;;29.00;14.57;;;;;;;;;;5014855;28;20022;-85
2021/08/13 02:15:23;;;;;;;29.00;16.00;;;;;;;;;;5016664;28;20083;-85
2021/08/13 02:18:03;;;;;;;27.30;15.32;;;;;;;;;;5015362;28;20028;-85
2021/08/13 02:20:30;;;;;;;31.27;16.20;;;;;;;;;;5015275;28;20025;-85
2021/08/13 02:22:57;;;;;;;34.50;16.90;;;;;;;;;;5015320;28;20022;-85
2021/08/13 02:25:22;;;;;;;34.92;17.77;;;;;;;;;;5015246;28;20068;-85
2021/08/13 02:27:48;;;;;;;33.40;14.65;;;;;;;;;;5015309;28;20026;-85
2021/08/13 02:30:13;;;;;;;33.72;16.33;;;;;;;;;;5014357;28;20026;-85
2021/08/13 02:32:38;;;;;;;44.88;16.02;;;;;;;;;;5015021;28;20556;-85
2021/08/13 02:35:04;;;;;;;29.27;14.40;;;;;;;;;;5015135;28;20049;-85
2021/08/13 02:37:41;;;;;;;26.10;14.50;;;;;;;;;;5015140;28;20424;-85
2021/08/13 02:40:06;;;;;;;25.23;13.70;;;;;;;;;;5014997;28;20036;-85
2021/08/13 02:42:49;;;;;;;25.20;14.85;;;;;;;;;;5047829;28;20061;-85
2021/08/13 02:45:15;;;;;;;31.05;16.13;;;;;;;;;;5014262;28;20018;-85
2021/08/13 02:47:43;;;;;;;31.48;13.75;;;;;;;;;;5014614;28;20029;-84
2021/08/13 02:50:08;;;;;;;29.15;15.05;;;;;;;;;;5014925;28;20020;-85
2021/08/13 02:52:39;;;;;;;30.10;14.93;;;;;;;;;;5014587;28;20029;-85
2021/08/13 02:55:06;;;;;;;31.20;14.70;;;;;;;;;;5014842;28;20481;-85
2021/08/13 02:57:33;;;;;;;31.25;15.52;;;;;;;;;;5014605;28;20022;-86
2021/08/13 02:59:59;;;;;;;33.78;15.80;;;;;;;;;;5014030;28;20021;-85
2021/08/13 03:02:26;;;;;;;27.45;15.05;;;;;;;;;;5014531;28;20393;-85
2021/08/13 03:04:53;;;;;;;32.83;14.90;;;;;;;;;;5014225;28;20014;-85
2021/08/13 03:07:19;;;;;;;28.38;14.52;;;;;;;;;;5014314;28;20381;-85
2021/08/13 03:09:44;;;;;;;36.38;15.00;;;;;;;;;;5014249;28;20029;-85
2021/08/13 03:12:10;;;;;;;27.27;13.90;;;;;;;;;;5014382;28;20101;-85
2021/08/13 03:14:35;;;;;;;26.20;14.13;;;;;;;;;;5014397;28;20022;-85
2021/08/13 03:17:00;;;;;;;26.23;13.35;;;;;;;;;;5014177;28;20028;-85
2021/08/13 03:19:26;;;;;;;26.55;14.18;;;;;;;;;;5014235;28;20022;-85
2021/08/13 03:21:52;;;;;;;28.90;13.40;;;;;;;;;;5014072;28;20014;-85
2021/08/13 03:24:17;;;;;;;27.77;13.82;;;;;;;;;;5014067;28;20022;-85
2021/08/13 03:26:42;;;;;;;25.55;13.52;;;;;;;;;;5013959;28;20029;-85
2021/08/13 03:29:08;;;;;;;28.67;14.60;;;;;;;;;;5013839;28;20414;-85
2021/08/13 03:31:38;;;;;;;27.73;14.25;;;;;;;;;;5013955;28;20041;-85
2021/08/13 03:34:05;;;;;;;23.25;13.10;;;;;;;;;;5015287;28;20026;-85
2021/08/13 03:36:30;;;;;;;28.70;13.85;;;;;;;;;;5013945;28;20088;-85
2021/08/13 03:38:55;;;;;;;21.65;12.40;;;;;;;;;;5013774;28;20462;-85
2021/08/13 03:41:21;;;;;;;29.63;13.32;;;;;;;;;;5015032;28;20036;-85
2021/08/13 03:43:46;;;;;;;27.20;12.73;;;;;;;;;;5014828;28;20069;-85
2021/08/13 03:46:11;;;;;;;31.38;14.70;;;;;;;;;;5013337;28;20026;-85
2021/08/13 03:48:36;;;;;;;29.55;13.50;;;;;;;;;;5013869;28;20014;-85
2021/08/13 03:51:02;;;;;;;25.60;12.75;;;;;;;;;;5013622;28;20092;-85
2021/08/13 03:53:27;;;;;;;27.55;14.75;;;;;;;;;;5013646;28;20025;-85
2021/08/13 03:55:52;;;;;;;28.48;15.05;;;;;;;;;;5013949;28;20061;-86
2021/08/13 03:58:17;;;;;;;27.83;13.63;;;;;;;;;;5013374;28;20433;-85
2021/08/13 04:00:43;;;;;;;27.63;14.43;;;;;;;;;;5013487;28;20022;-85
2021/08/13 04:03:08;;;;;;;24.42;13.30;;;;;;;;;;5013346;28;20040;-85
2021/08/13 04:05:33;;;;;;;27.80;14.38;;;;;;;;;;5013385;28;20026;-85
2021/08/13 04:07:58;;;;;;;31.58;16.05;;;;;;;;;;5013130;28;20125;-85
2021/08/13 04:10:23;;;;;;;36.65;16.55;;;;;;;;;;5013158;28;20439;-85
2021/08/13 04:12:49;;;;;;;30.23;13.95;;;;;;;;;;5012881;28;20501;-85
2021/08/13 04:15:14;;;;;;;27.58;13.63;;;;;;;;;;5013155;28;20466;-85
2021/08/13 04:17:39;;;;;;;33.55;15.05;;;;;;;;;;5013214;28;20029;-85
2021/08/13 04:20:05;;;;;;;29.17;14.02;;;;;;;;;;5012987;28;20037;-85
2021/08/13 04:22:30;;;;;;;29.30;13.13;;;;;;;;;;5012948;28;20484;-85
2021/08/13 04:24:55;;;;;;;27.00;13.35;;;;;;;;;;5045522;28;20022;-85
2021/08/13 04:27:20;;;;;;;22.90;12.38;;;;;;;;;;5012640;28;20508;-85
2021/08/13 04:29:46;;;;;;;25.00;13.45;;;;;;;;;;5012396;28;20022;-85
2021/08/13 04:32:11;;;;;;;25.65;12.98;;;;;;;;;;5011707;28;20145;-85
2021/08/13 04:34:36;;;;;;;25.17;12.35;;;;;;;;;;5013101;28;20029;-85
2021/08/13 04:37:02;;;;;;;27.83;13.55;;;;;;;;;;5011633;28;20033;-85
2021/08/13 04:39:27;;;;;;;28.13;13.80;;;;;;;;;;5013035;28;20473;-85
2021/08/13 04:41:52;;;;;;;27.25;12.43;;;;;;;;;;5011298;28;20061;-85
2021/08/13 04:44:17;;;;;;;23.15;11.57;;;;;;;;;;5011530;28;20022;-85
2021/08/13 04:46:43;;;;;;;18.92;10.10;;;;;;;;;;5011545;28;20045;-85
2021/08/13 04:49:08;;;;;;;24.20;12.40;;;;;;;;;;5011739;28;20091;-84
2021/08/13 04:51:33;;;;;;;22.35;11.15;;;;;;;;;;5011660;28;20030;-85
2021/08/13 04:53:58;;;;;;;23.77;12.38;;;;;;;;;;5011630;28;20022;-85
2021/08/13 04:56:23;;;;;;;20.98;11.07;;;;;;;;;;5011273;28;20053;-85
2021/08/13 04:58:49;;;;;;;22.05;10.73;;;;;;;;;;5011720;28;20018;-85
2021/08/13 05:01:15;;;;;;;23.95;11.02;;;;;;;;;;5010853;28;20026;-85
2021/08/13 05:03:40;;;;;;;29.08;13.30;;;;;;;;;;5011941;28;20021;-85
2021/08/13 05:06:05;;;;;;;25.17;11.40;;;;;;;;;;5011907;28;20508;-85
2021/08/13 05:08:30;;;;;;;25.25;11.88;;;;;;;;;;5011716;28;20381;-85
2021/08/13 05:10:56;;;;;;;23.55;10.73;;;;;;;;;;5011849;28;20029;-85
2021/08/13 05:13:21;;;;;;;24.92;12.07;;;;;;;;;;5008239;28;20026;-85
2021/08/13 05:15:46;;;;;;;20.60;10.68;;;;;;;;;;5034463;28;20458;-85
2021/08/13 05:18:11;;;;;;;25.85;11.23;;;;;;;;;;5011618;28;20504;-85
2021/08/13 05:20:36;;;;;;;21.67;10.75;;;;;;;;;;5011562;28;20096;-85
2021/08/13 05:23:02;;;;;;;27.65;11.60;;;;;;;;;;5011610;28;20018;-85
2021/08/13 05:25:27;;;;;;;24.88;11.55;;;;;;;;;;5011407;28;20030;-86
2021/08/13 05:27:52;;;;;;;22.80;11.35;;;;;;;;;;5011552;28;20014;-85
2021/08/13 05:30:17;;;;;;;21.20;10.13;;;;;;;;;;5011185;28;20436;-85
2021/08/13 05:32:44;;;;;;;21.40;10.40;;;;;;;;;;5011395;28;20033;-85
2021/08/13 05:35:10;;;;;;;20.60;10.90;;;;;;;;;;5011370;28;20026;-85
2021/08/13 05:37:35;;;;;;;23.52;10.73;;;;;;;;;;5011553;28;20038;-85
2021/08/13 05:40:00;;;;;;;22.80;10.55;;;;;;;;;;5011425;28;20493;-85
2021/08/13 05:42:26;;;;;;;20.38;10.38;;;;;;;;;;5011167;28;20017;-84
2021/08/13 05:44:51;;;;;;;17.88;9.10;;;;;;;;;;5013047;28;20415;-85
2021/08/13 05:47:18;;;;;;;20.90;9.32;;;;;;;;;;5011265;28;20030;-85
2021/08/13 05:49:43;;;;;;;20.13;8.63;;;;;;;;;;5011391;28;20354;-85
2021/08/13 05:52:08;;;;;;;17.10;9.05;;;;;;;;;;5011446;28;20033;-85
2021/08/13 05:54:34;;;;;;;19.48;8.65;;;;;;;;;;5010002;28;20018;-86
2021/08/13 05:56:59;;;;;;;15.98;8.27;;;;;;;;;;5011234;28;20061;-85
2021/08/13 05:59:24;;;;;;;24.02;9.30;;;;;;;;;;5011238;28;20022;-85
2021/08/13 06:01:49;;;;;;;13.88;7.82;;;;;;;;;;5011071;28;20025;-85
2021/08/13 06:04:15;;;;;;;16.20;7.90;;;;;;;;;;5013308;28;20112;-85
2021/08/13 06:06:43;;;;;;;15.07;7.93;;;;;;;;;;5014519;28;20017;-84
2021/08/13 06:09:08;;;;;;;15.15;8.13;;;;;;;;;;5018642;28;20390;-84
2021/08/13 06:11:34;;;;;;;12.43;6.97;;;;;;;;;;5010670;28;20030;-84
2021/08/13 06:13:59;;;;;;;18.17;8.23;;;;;;;;;;5010678;28;20022;-85
2021/08/13 06:16:24;;;;;;;20.15;7.72;;;;;;;;;;5010021;28;20473;-84
2021/08/13 06:18:49;;;;;;;15.65;8.13;;;;;;;;;;5010642;28;20026;-84
2021/08/13 06:21:14;;;;;;;16.48;7.50;;;;;;;;;;5010645;28;20034;-85
2021/08/13 06:23:40;;;;;;;17.42;8.30;;;;;;;;;;5010907;28;20100;-84
2021/08/13 06:26:05;;;;;;;14.13;7.22;;;;;;;;;;5010169;28;20022;-84
2021/08/13 06:28:30;;;;;;;15.07;7.53;;;;;;;;;;5010782;28;20022;-84
2021/08/13 06:30:55;;;;;;;13.85;7.60;;;;;;;;;;5017992;28;20054;-84
2021/08/13 06:33:21;;;;;;;17.67;7.40;;;;;;;;;;5010476;28;20025;-84
2021/08/13 06:35:46;;;;;;;17.15;7.90;;;;;;;;;;5013934;28;20021;-85
2021/08/13 06:38:11;;;;;;;20.35;8.02;;;;;;;;;;5014386;28;20547;-85
2021/08/13 06:40:36;;;;;;;14.73;6.97;;;;;;;;;;5016279;28;20086;-84
2021/08/13 06:43:02;;;;;;;14.25;7.10;;;;;;;;;;5014235;28;20458;-84
2021/08/13 06:45:28;;;;;;;16.27;7.03;;;;;;;;;;5016955;28;20465;-84
2021/08/13 06:47:56;;;;;;;14.77;7.07;;;;;;;;;;5015665;28;20064;-84
2021/08/13 06:50:21;;;;;;;12.13;6.60;;;;;;;;;;5021655;28;20021;-84
2021/08/13 06:52:48;;;;;;;20.50;6.38;;;;;;;;;;5003393;28;20077;-84
2021/08/13 06:55:13;;;;;;;14.60;6.50;;;;;;;;;;5014325;28;20073;-85
2021/08/13 06:57:38;;;;;;;12.98;5.97;;;;;;;;;;5014068;28;20049;-84
2021/08/13 07:00:05;;;;;;;12.93;6.32;;;;;;;;;;5020422;28;20481;-84
2021/08/13 07:02:30;;;;;;;12.00;5.32;;;;;;;;;;5014055;28;20473;-84
2021/08/13 07:04:55;;;;;;;15.60;5.78;;;;;;;;;;5013887;28;20060;-84
2021/08/13 07:07:20;;;;;;;10.70;5.93;;;;;;;;;;5019934;28;20396;-84
2021/08/13 07:09:47;;;;;;;10.32;6.18;;;;;;;;;;5029272;28;20037;-85
2021/08/13 07:12:13;;;;;;;14.02;5.78;;;;;;;;;;5013889;28;20029;-84
2021/08/13 07:14:38;;;;;;;9.77;5.28;;;;;;;;;;5013717;28;20018;-85
2021/08/13 07:17:03;;;;;;;12.15;5.43;;;;;;;;;;5013593;28;20022;-84
2021/08/13 07:19:29;;;;;;;11.23;5.80;;;;;;;;;;5013627;28;20018;-85
2021/08/13 07:21:54;;;;;;;10.95;5.10;;;;;;;;;;5013385;28;20022;-85
2021/08/13 07:24:21;;;;;;;10.80;5.15;;;;;;;;;;5013495;28;20033;-84
2021/08/13 07:26:47;;;;;;;12.13;5.10;;;;;;;;;;5013377;28;20022;-84
2021/08/13 07:29:12;;;;;;;11.95;5.68;;;;;;;;;;5013530;28;20022;-84
2021/08/13 07:31:37;;;;;;;9.80;4.70;;;;;;;;;;5013185;28;20461;-84
2021/08/13 07:34:02;;;;;;;9.35;4.40;;;;;;;;;;5013342;28;20608;-84
2021/08/13 07:36:27;;;;;;;8.38;4.38;;;;;;;;;;5013317;28;20021;-84
2021/08/13 07:38:53;;;;;;;9.82;5.07;;;;;;;;;;5012988;28;20022;-83
2021/08/13 07:41:18;;;;;;;8.07;4.38;;;;;;;;;;5012827;28;20436;-84
2021/08/13 07:43:44;;;;;;;10.50;4.93;;;;;;;;;;5012960;28;20021;-84
2021/08/13 07:46:10;;;;;;;9.95;4.57;;;;;;;;;;5011882;28;20484;-84
2021/08/13 07:48:35;;;;;;;6.97;4.07;;;;;;;;;;5013221;28;20022;-84
2021/08/13 07:51:00;;;;;;;8.43;4.10;;;;;;;;;;5012876;28;20026;-84
2021/08/13 07:53:26;;;;;;;8.38;4.15;;;;;;;;;;5013016;28;20034;-85
2021/08/13 07:55:51;;;;;;;9.10;4.30;;;;;;;;;;5012918;28;20022;-84
2021/08/13 07:58:16;;;;;;;7.68;4.03;;;;;;;;;;5045909;28;20470;-84
2021/08/13 08:00:41;;;;;;;7.45;4.22;;;;;;;;;;5012945;28;20049;-84
2021/08/13 08:03:07;;;;;;;7.28;3.53;;;;;;;;;;5013010;28;20018;-84
2021/08/13 08:05:33;;;;;;;9.10;3.78;;;;;;;;;;5016423;28;20048;-84
2021/08/13 08:07:58;;;;;;;6.03;3.20;;;;;;;;;;5017470;28;20022;-83
2021/08/13 08:10:23;;;;;;;8.07;3.67;;;;;;;;;;5018661;28;20738;-84
2021/08/13 08:12:48;;;;;;;5.55;3.08;;;;;;;;;;5016947;28;20053;-84
2021/08/13 08:15:14;;;;;;;9.52;3.60;;;;;;;;;;5013578;28;20385;-84
2021/08/13 08:17:39;;;;;;;6.35;3.15;;;;;;;;;;5017947;28;20021;-84
2021/08/13 08:20:04;;;;;;;8.48;3.30;;;;;;;;;;5016315;28;20473;-84
2021/08/13 08:22:30;;;;;;;12.43;4.68;;;;;;;;;;5024096;28;20485;-84
2021/08/13 08:24:55;;;;;;;7.68;3.67;;;;;;;;;;5013009;28;20384;-84
2021/08/13 08:27:20;;;;;;;10.52;3.90;;;;;;;;;;5025209;28;20492;-84
2021/08/13 08:29:45;;;;;;;7.82;3.95;;;;;;;;;;5016832;28;20025;-84
2021/08/13 08:32:10;;;;;;;6.28;3.50;;;;;;;;;;5013738;28;20421;-83
2021/08/13 08:34:36;;;;;;;6.85;3.30;;;;;;;;;;5012962;28;20113;-84
2021/08/13 08:37:01;;;;;;;6.70;3.10;;;;;;;;;;5016634;28;20368;-83
2021/08/13 08:39:27;;;;;;;5.63;3.00;;;;;;;;;;5021210;28;20370;-84
2021/08/13 08:41:52;;;;;;;8.07;3.75;;;;;;;;;;5022066;28;20445;-83
2021/08/13 08:44:17;;;;;;;7.72;3.08;;;;;;;;;;5012818;28;20022;-83
2021/08/13 08:46:46;;;;;;;7.43;3.15;;;;;;;;;;5014018;28;20045;-83
2021/08/13 08:49:12;;;;;;;6.75;3.30;;;;;;;;;;5016240;28;20033;-83
2021/08/13 08:51:39;;;;;;;6.22;2.78;;;;;;;;;;5015714;28;20013;-83
2021/08/13 08:54:05;;;;;;;5.95;3.20;;;;;;;;;;5013594;28;20068;-84
2021/08/13 08:56:32;;;;;;;12.30;3.63;;;;;;;;;;5012793;28;20017;-84
2021/08/13 08:58:57;;;;;;;7.03;4.00;;;;;;;;;;5011954;28;20029;-82
2021/08/13 09:01:25;;;;;;;7.70;3.60;;;;;;;;;;5018598;28;20022;-84
2021/08/13 09:03:50;;;;;;;8.60;4.00;;;;;;;;;;5012705;28;20014;-84
2021/08/13 09:06:15;;;;;;;8.10;3.60;;;;;;;;;;5017935;28;20032;-84
2021/08/13 09:08:41;;;;;;;8.77;3.30;;;;;;;;;;5022760;28;20429;-84
2021/08/13 09:11:06;;;;;;;12.43;3.95;;;;;;;;;;5012483;28;20022;-84
2021/08/13 09:13:34;;;;;;;5.15;2.90;;;;;;;;;;5001093;28;20021;-85
2021/08/13 09:16:09;;;;;;;7.38;2.50;;;;;;;;;;5011969;28;20026;-84
2021/08/13 09:18:35;;;;;;;5.55;2.88;;;;;;;;;;5012048;28;20092;-84
2021/08/13 09:21:01;;;;;;;5.43;3.00;;;;;;;;;;5015695;28;20473;-84
2021/08/13 09:23:29;;;;;;;5.32;2.03;;;;;;;;;;5008270;28;20461;-84
2021/08/13 09:25:58;;;;;;;5.45;2.38;;;;;;;;;;5060771;28;20079;-84
2021/08/13 09:28:42;;;;;;;3.90;2.00;;;;;;;;;;5015789;28;20029;-84
2021/08/13 09:31:10;;;;;;;3.47;1.85;;;;;;;;;;5053300;28;20030;-84
2021/08/13 09:33:35;;;;;;;4.97;2.40;;;;;;;;;;5046855;28;20049;-84
2021/08/13 09:36:01;;;;;;;4.63;2.03;;;;;;;;;;5023526;28;20057;-84
2021/08/13 09:38:28;;;;;;;5.28;2.45;;;;;;;;;;5013268;28;20533;-84
2021/08/13 09:41:03;;;;;;;8.70;2.72;;;;;;;;;;5011684;28;20040;-84
2021/08/13 09:43:29;;;;;;;3.92;2.17;;;;;;;;;;5012090;28;20026;-85
2021/08/13 09:46:06;;;;;;;5.25;2.25;;;;;;;;;;5011561;28;20022;-84
2021/08/13 09:48:32;;;;;;;7.50;2.55;;;;;;;;;;5012284;28;20018;-84
2021/08/13 09:50:57;;;;;;;4.43;2.00;;;;;;;;;;5011986;28;20032;-85
2021/08/13 09:53:22;;;;;;;5.13;2.17;;;;;;;;;;5013282;28;20029;-85
2021/08/13 09:55:47;;;;;;;5.05;2.50;;;;;;;;;;5012725;28;20029;-84
2021/08/13 09:58:22;;;;;;;6.20;2.50;;;;;;;;;;5011879;28;20080;-84
2021/08/13 10:00:48;;;;;;;6.47;2.53;;;;;;;;;;5017336;28;20025;-84
2021/08/13 10:03:14;;;;;;;6.22;2.30;;;;;;;;;;5014865;28;20016;-84
2021/08/13 10:05:39;;;;;;;4.15;2.10;;;;;;;;;;5007148;28;20026;-85
2021/08/13 10:08:05;;;;;;;4.22;2.17;;;;;;;;;;5008047;28;20022;-85
2021/08/13 10:10:35;;;;;;;6.18;2.78;;;;;;;;;;5014121;28;20025;-85
2021/08/13 10:13:00;;;;;;;4.10;2.10;;;;;;;;;;5016712;28;20026;-84
2021/08/13 10:15:28;;;;;;;5.47;2.63;;;;;;;;;;5015576;28;20028;-85
2021/08/13 10:17:54;;;;;;;7.93;2.92;;;;;;;;;;5015705;28;20072;-84
2021/08/13 10:20:19;;;;;;;5.18;2.53;;;;;;;;;;5015340;28;20018;-84
2021/08/13 10:22:44;;;;;;;4.75;2.60;;;;;;;;;;5015284;28;20018;-84
2021/08/13 10:25:10;;;;;;;5.03;2.13;;;;;;;;;;5015280;28;20026;-84
2021/08/13 10:27:35;;;;;;;5.60;2.08;;;;;;;;;;5012331;28;20026;-84
2021/08/13 10:30:00;;;;;;;6.43;2.30;;;;;;;;;;5014851;28;20072;-84
2021/08/13 10:32:26;;;;;;;5.60;2.70;;;;;;;;;;5015409;28;20367;-84
2021/08/13 10:34:51;;;;;;;3.95;2.00;;;;;;;;;;5015051;28;20393;-84
2021/08/13 10:37:17;;;;;;;6.15;2.42;;;;;;;;;;5015128;28;20026;-84
2021/08/13 10:39:43;;;;;;;7.35;2.40;;;;;;;;;;5014755;28;20114;-85
2021/08/13 10:42:13;;;;;;;6.97;2.40;;;;;;;;;;5013141;28;20041;-85
2021/08/13 10:44:45;;;;;;;5.13;2.08;;;;;;;;;;5046394;28;20022;-85
2021/08/13 10:47:12;;;;;;;5.57;2.40;;;;;;;;;;5015532;28;20105;-85
2021/08/13 10:49:39;;;;;;;4.57;2.03;;;;;;;;;;5013876;28;20017;-85
2021/08/13 10:52:05;;;;;;;4.43;2.00;;;;;;;;;;5014376;28;20084;-85
2021/08/13 10:54:37;;;;;;;5.57;2.30;;;;;;;;;;5012457;28;20112;-84
2021/08/13 10:57:03;;;;;;;8.57;2.13;;;;;;;;;;5046510;28;20395;-85
2021/08/13 10:59:44;;;;;;;9.88;2.85;;;;;;;;;;5012842;28;20080;-85
2021/08/13 11:02:14;;;;;;;5.47;2.20;;;;;;;;;;5014160;28;20354;-84
2021/08/13 11:04:40;;;;;;;6.13;2.58;;;;;;;;;;5010540;28;20097;-85
2021/08/13 11:07:05;;;;;;;6.05;3.08;;;;;;;;;;5012769;28;20022;-85
2021/08/13 11:09:32;;;;;;;7.32;2.70;;;;;;;;;;5014235;28;20021;-85
2021/08/13 11:11:57;;;;;;;5.10;2.25;;;;;;;;;;5011289;28;20025;-85
2021/08/13 11:14:23;;;;;;;6.65;3.13;;;;;;;;;;5011391;28;20272;-85
2021/08/13 11:16:49;;;;;;;5.97;2.60;;;;;;;;;;5011539;28;20018;-85
2021/08/13 11:19:15;;;;;;;9.65;3.67;;;;;;;;;;5012692;28;20032;-85
2021/08/13 11:21:46;;;;;;;6.32;2.60;;;;;;;;;;5012149;28;20437;-85
2021/08/13 11:24:12;;;;;;;6.63;3.00;;;;;;;;;;5011183;28;20026;-85
2021/08/13 11:26:49;;;;;;;5.60;2.70;;;;;;;;;;5012063;28;20057;-84
2021/08/13 11:29:27;;;;;;;6.25;3.13;;;;;;;;;;5046784;28;20532;-85
2021/08/13 11:31:52;;;;;;;9.18;3.60;;;;;;;;;;5045304;28;20096;-85
2021/08/13 11:34:36;;;;;;;7.38;2.97;;;;;;;;;;5013963;28;20025;-85
2021/08/13 11:37:02;;;;;;;5.22;2.53;;;;;;;;;;5041690;28;20022;-85
2021/08/13 11:39:38;;;;;;;7.28;2.88;;;;;;;;;;5012231;28;20044;-85
2021/08/13 11:42:07;;;;;;;5.90;2.65;;;;;;;;;;5013089;28;20053;-85
2021/08/13 11:44:32;;;;;;;5.45;2.80;;;;;;;;;;5029306;28;20021;-85
2021/08/13 11:46:58;;;;;;;6.55;2.67;;;;;;;;;;5012031;28;20501;-85
2021/08/13 11:49:24;;;;;;;6.75;2.17;;;;;;;;;;5011857;28;20028;-85
2021/08/13 11:51:50;;;;;;;8.15;2.40;;;;;;;;;;5012419;28;20030;-85
2021/08/13 11:54:26;;;;;;;4.50;2.58;;;;;;;;;;5012880;28;20116;-85
2021/08/13 11:56:51;;;;;;;4.38;2.00;;;;;;;;;;5011935;28;20105;-85
2021/08/13 11:59:17;;;;;;;8.93;2.25;;;;;;;;;;5011792;28;20117;-85
2021/08/13 12:02:00;;;;;;;4.80;2.22;;;;;;;;;;5015222;28;20018;-85
2021/08/13 12:04:25;;;;;;;6.47;2.65;;;;;;;;;;5011603;28;20018;-85
2021/08/13 12:07:01;;;;;;;9.57;2.65;;;;;;;;;;5015920;28;20030;-85
2021/08/13 12:09:30;;;;;;;8.45;2.42;;;;;;;;;;5044585;28;20025;-85
2021/08/13 12:11:59;;;;;;;9.82;2.30;;;;;;;;;;5044479;28;20014;-85
2021/08/13 12:14:24;;;;;;;6.75;2.30;;;;;;;;;;5012719;28;20022;-85
2021/08/13 12:16:53;;;;;;;7.63;2.45;;;;;;;;;;5011445;28;20057;-85
2021/08/13 12:19:18;;;;;;;6.45;2.30;;;;;;;;;;5013896;28;20089;-85
2021/08/13 12:22:03;;;;;;;7.00;2.38;;;;;;;;;;5043648;28;20118;-85
2021/08/13 12:24:30;;;;;;;4.70;1.90;;;;;;;;;;5012710;28;20679;-85
2021/08/13 12:26:57;;;;;;;3.88;2.10;;;;;;;;;;5012217;28;20041;-85
2021/08/13 12:29:23;;;;;;;5.03;2.20;;;;;;;;;;5013551;28;20032;-85
2021/08/13 12:31:51;;;;;;;7.03;2.45;;;;;;;;;;5045013;28;20022;-85
2021/08/13 12:34:20;;;;;;;4.53;2.10;;;;;;;;;;5012482;28;20037;-85
2021/08/13 12:36:45;;;;;;;5.53;2.65;;;;;;;;;;5012180;28;20048;-85
2021/08/13 12:39:11;;;;;;;7.13;2.42;;;;;;;;;;5013101;28;20030;-85
2021/08/13 12:41:36;;;;;;;6.20;2.30;;;;;;;;;;5012293;28;20524;-85
2021/08/13 12:44:01;;;;;;;6.30;2.53;;;;;;;;;;5011978;28;20540;-85
2021/08/13 12:46:31;;;;;;;8.48;2.78;;;;;;;;;;5012282;28;20060;-85
2021/08/13 12:48:57;;;;;;;5.35;2.50;;;;;;;;;;5012316;28;20010;-85
2021/08/13 12:51:26;;;;;;;5.38;2.67;;;;;;;;;;5011982;28;20091;-85
2021/08/13 12:53:52;;;;;;;6.18;2.92;;;;;;;;;;5011840;28;20104;-85
2021/08/13 12:56:18;;;;;;;6.75;2.42;;;;;;;;;;5013320;28;20369;-85
2021/08/13 12:58:43;;;;;;;3.85;2.08;;;;;;;;;;5012174;28;20076;-85
2021/08/13 13:01:28;;;;;;;9.55;2.70;;;;;;;;;;5011849;28;20014;-85
2021/08/13 13:04:12;;;;;;;6.93;2.65;;;;;;;;;;5012108;28;20021;-85
2021/08/13 13:06:37;;;;;;;8.20;2.50;;;;;;;;;;5044925;28;20048;-85
2021/08/13 13:09:03;;;;;;;8.63;2.20;;;;;;;;;;5011853;28;20061;-85
2021/08/13 13:11:29;;;;;;;4.97;2.67;;;;;;;;;;5011804;28;20033;-85
2021/08/13 13:13:56;;;;;;;3.53;2.10;;;;;;;;;;5011664;28;20026;-85
2021/08/13 13:16:21;;;;;;;4.40;2.15;;;;;;;;;;5011730;28;20392;-84
2021/08/13 13:18:47;;;;;;;7.80;2.70;;;;;;;;;;5011892;28;20018;-85
2021/08/13 13:21:28;;;;;;;7.47;2.38;;;;;;;;;;5011821;28;20477;-85
2021/08/13 13:23:55;;;;;;;6.80;2.70;;;;;;;;;;5011890;28;20398;-85
2021/08/13 13:26:20;;;;;;;5.55;2.08;;;;;;;;;;5011847;28;20054;-85
2021/08/13 13:28:46;;;;;;;6.40;2.47;;;;;;;;;;5011651;28;20046;-85
2021/08/13 13:31:19;;;;;;;6.25;2.38;;;;;;;;;;5011983;28;20026;-85
2021/08/13 13:33:45;;;;;;;6.25;1.92;;;;;;;;;;5011617;28;20396;-85
2021/08/13 13:36:10;;;;;;;6.03;2.42;;;;;;;;;;5011708;28;20026;-85
2021/08/13 13:38:37;;;;;;;7.50;2.30;;;;;;;;;;5011422;28;20113;-85
2021/08/13 13:41:02;;;;;;;6.25;2.33;;;;;;;;;;5011652;28;20485;-85
2021/08/13 13:43:27;;;;;;;9.07;2.13;;;;;;;;;;5011454;28;20022;-86
2021/08/13 13:45:54;;;;;;;6.15;2.20;;;;;;;;;;5015856;28;20022;-85
2021/08/13 13:48:19;;;;;;;6.30;2.35;;;;;;;;;;5016753;28;20458;-85
2021/08/13 13:50:45;;;;;;;8.00;2.40;;;;;;;;;;5015407;28;20080;-84
2021/08/13 13:53:10;;;;;;;9.95;2.53;;;;;;;;;;5015354;28;20021;-85
2021/08/13 13:55:35;;;;;;;5.30;2.40;;;;;;;;;;5015529;28;20025;-85
2021/08/13 13:58:01;;;;;;;4.20;2.15;;;;;;;;;;5015322;28;20029;-85
2021/08/13 14:00:26;;;;;;;4.47;2.35;;;;;;;;;;5015292;28;20069;-85
2021/08/13 14:02:52;;;;;;;6.35;2.20;;;;;;;;;;5015051;28;20068;-85
2021/08/13 14:05:18;;;;;;;7.25;2.58;;;;;;;;;;5016502;28;20101;-85
2021/08/13 14:07:44;;;;;;;7.38;2.10;;;;;;;;;;5015246;28;20370;-85
2021/08/13 14:10:11;;;;;;;6.85;2.55;;;;;;;;;;5013818;28;20022;-85
2021/08/13 14:12:36;;;;;;;8.43;2.47;;;;;;;;;;5015072;28;20101;-85
2021/08/13 14:15:06;;;;;;;4.57;2.00;;;;;;;;;;5015028;28;20041;-85
2021/08/13 14:17:31;;;;;;;4.55;2.05;;;;;;;;;;5014995;28;20080;-85
2021/08/13 14:19:59;;;;;;;3.83;2.15;;;;;;;;;;5014650;28;20022;-85
2021/08/13 14:22:24;;;;;;;4.10;1.77;;;;;;;;;;5014995;28;20025;-85
2021/08/13 14:24:50;;;;;;;5.75;2.00;;;;;;;;;;5014998;28;20022;-85
2021/08/13 14:27:15;;;;;;;6.10;1.73;;;;;;;;;;5015010;28;20334;-85